Terminal Aerodrome Forecast
Issued by NWS

Home | Current Version | Previous Version | Text Only | Print | Product List | Glossary On
Versions: 1 2 3 4 5 6 7 8 9 10 11 12 13 14 15 16 17 18 19 20 21 22 23 24 25 26 27 28 29
390
FTUS45 KGGW 231725
TAFOLF
TAF
KOLF 231725Z 2318/2418 09018KT P6SM OVC018
     FM232000 09016G24KT P6SM OVC025
     FM232100 09015G23KT P6SM VCSH OVC035
     FM240500 07010KT 6SM -SHRASN OVC008
     FM240900 05007KT P6SM VCSH OVC010=

USA.gov is the U.S. government's official web portal to all federal, state and local government web resources and services.